Huvudsida
METAR-TAF:

METAR-TAF

Flygplatser :

Östersund-Frösön, Sverige

Åre Östersund Airport

latitud: 63-11N, longitud: 014-30E, höjd: 376 m

Aktuellt väderrapport

Denna rapport gjordes för 34 minuter sedan, klockan 02:50 UTC
Vind 8 kt från sydost
Temperatur -12°C
Fuktighet 85%
Tryck 997 hPa
Sikt: 5000 m
lätt snö

METAR: ESNZ 190250Z AUTO 13008KT 5000 -SN OVC031/// M12/M14 Q0997

Tid: 04:24 (03:24 UTC)

Väderprognos

Denna rapport gjordes för 6 timmar och 54 minuter sedan, klockan 20:30 UTC
Prognos gäller från 18 kl. 21 UTC till 18 kl. 23 UTC
Vind 7 kt från sydost
Sikt: 9000 m
Spridda moln på en höjd av 1000 ft
Brutna moln på en höjd av 2000 ft
lätt snö
Temporärt
från 18 kl. 21 UTC till 18 kl. 23 UTC
Sikt: 3000 m
på en höjd av 1200 ft

TAF: ESNZ 182030Z 1821/1823 13007KT 9000 -SN SCT010 BKN020 TEMPO 1821/1823 3000 VV012

Aktuella väderrapporter och prognoser från 4000 flygplatser (METAR- och TAF-rapporter).

De tillgängliga stationerna syns som gula och röda prickar på kartan.

För musen över prickarna för att se namnen på stationerna.

Klicka sedan för att få väderrapporter och prognoser.

För att ändra kartan: Klicka på de gröna knapparna med ett svart kors på för att zooma in; den gröna knappen med ett streck på för att zooma ut; eller på de gröna pilarna för angränsande kartor.


METAR-TAF: